Terminal Aerodrome Forecast
Issued by NWS

Current Version | Previous Version | Graphics & Text | Print | Product List | Glossary On
Versions: 1 2 3 4 5 6 7 8 9 10 11 12 13 14 15 16 17 18 19 20 21 22 23 24 25 26 27 28 29
000
FTUS41 KRLX 151720
TAFCKB
TAF
KCKB 151720Z 1518/1618 VRB03KT P6SM SCT025
     FM160300 00000KT P6SM FEW250
     FM160400 00000KT 5SM BR FEW250
     FM160600 00000KT 2SM BR SCT001
     FM160800 00000KT 1/4SM FG OVC001
     FM161200 00000KT 1 1/2SM BR SCT250
     FM161300 00000KT P6SM SCT250
     FM161700 VRB03KT P6SM SCT050=

USA.gov is the U.S. government's official web portal to all federal, state and local government web resources and services.